Pagrindinis puslapis
METAR-TAF:

METAR-TAF

Oro uostai :

Puent Nuaras, Kongas

platuma: 04-49S, ilguma: 011-54E, Aukštis: 17 m

Dabartinis oras

Ataskaita buvo paskelbta 57 minutes, ne 09:00 UTC
Vėjas 1 kt nuo kintamojo kryptimis
Temperatūra 24°C
Drėgmė 100%
Slėgis 1014 hPa
Matomumas: 6000 m
Su prošvaistėmis ne aukštis 800 ft
Apsiniaukę ne aukštis 2000 ft
dulksna

METAR: FCPP 220900Z VRB01KT 6000 -DZ BKN008 OVC020 24/24 Q1014 BECMG SCT010 OVC020

Laikas: 10:57 (09:57 UTC)

Prognozė

Ataskaita buvo paskelbta 4 valandos ir 57 minutes, ne 05:00 UTC
Prognozė galioja nuo 22 metu 06 UTC su 23 metu 06 UTC
Vėjas 3 kt iš Pietryčių
Matomumas: 8000 m
Išsisklaidę debesys ne aukštis 1000 ft
Apsiniaukę ne aukštis 2000 ft

TAF: FCPP 220500Z 2206/2306 14003KT 8000 SCT010 OVC020

Orai ataskaitas ir orų prognozės (METAR, TAF).

turimą stotys yra geltonos ir raudonos taškus žemėlapyje.

Perkelti pele per norėdami pamatyti stoties vardą.

Tada spustelėkite, norėdami matyti oro stebėjimo ir prognozės.

Norėdami pakeisti žemėlapį: spustelėkite ant žalios mygtukų su juodo kryžiaus žemyn,; žalią mygtuką su brūkšneliu, jei norite nutolinti; arba žalių rodyklių gretimoms žemėlapius.


METAR-TAF: